createdAt,value
2022-12-23T00:01:28.520Z,24.88
2022-12-23T00:03:59.363Z,26.30
2022-12-23T00:06:26.537Z,27.40
2022-12-23T00:08:58.756Z,28.42
2022-12-23T00:11:27.298Z,28.30
2022-12-23T00:14:19.959Z,28.02
2022-12-23T00:16:47.621Z,24.58
2022-12-23T00:19:14.394Z,25.55
2022-12-23T00:21:41.155Z,28.05
2022-12-23T00:24:07.931Z,24.50
2022-12-23T00:26:34.625Z,30.75
2022-12-23T00:29:01.382Z,29.20
2022-12-23T00:31:28.206Z,27.65
2022-12-23T00:33:54.968Z,26.92
2022-12-23T00:36:27.954Z,27.67
2022-12-23T00:39:15.024Z,24.92
2022-12-23T00:42:00.553Z,25.73
2022-12-23T00:44:27.359Z,30.02
2022-12-23T00:46:54.156Z,20.45
2022-12-23T00:49:39.679Z,28.17
2022-12-23T00:52:09.667Z,25.67
2022-12-23T00:54:36.703Z,27.42
2022-12-23T00:57:03.678Z,28.70
2022-12-23T00:59:30.644Z,27.70
2022-12-23T01:02:15.950Z,29.58
2022-12-23T01:05:01.313Z,29.77
2022-12-23T01:07:28.173Z,26.60
2022-12-23T01:09:54.907Z,26.73
2022-12-23T01:12:21.656Z,28.55
2022-12-23T01:14:48.744Z,26.38
2022-12-23T01:17:15.686Z,27.67
2022-12-23T01:19:42.626Z,26.77
2022-12-23T01:22:09.402Z,25.58
2022-12-23T01:24:36.139Z,28.98
2022-12-23T01:27:02.880Z,27.65
2022-12-23T01:29:29.849Z,25.33
2022-12-23T01:31:56.923Z,27.67
2022-12-23T01:34:23.821Z,25.67
2022-12-23T01:36:50.720Z,25.90
2022-12-23T01:39:17.438Z,26.05
2022-12-23T01:42:02.994Z,25.85
2022-12-23T01:44:58.099Z,24.63
2022-12-23T01:47:36.339Z,23.35
2022-12-23T01:50:08.364Z,25.25
2022-12-23T01:52:41.839Z,23.83
2022-12-23T01:55:09.926Z,31.02
2022-12-23T01:57:40.788Z,29.00
2022-12-23T02:00:26.868Z,24.45
2022-12-23T02:03:12.485Z,27.20
2022-12-23T02:05:39.552Z,20.17
2022-12-23T02:08:25.592Z,23.15
2022-12-23T02:11:07.839Z,18.98
2022-12-23T02:14:23.944Z,17.52
2022-12-23T02:17:01.981Z,21.73
2022-12-23T02:19:47.283Z,23.38
2022-12-23T02:22:43.309Z,26.08
2022-12-23T02:25:32.631Z,23.70
2022-12-23T02:28:37.020Z,25.90
2022-12-23T02:31:14.319Z,22.95
2022-12-23T02:34:00.534Z,22.13
2022-12-23T02:36:56.261Z,28.35
2022-12-23T02:39:53.811Z,21.30
2022-12-23T02:42:31.663Z,18.45
2022-12-23T02:45:13.778Z,18.55
2022-12-23T02:47:54.283Z,17.83
2022-12-23T02:50:27.928Z,15.13
2022-12-23T02:52:58.591Z,15.07
2022-12-23T02:55:30.173Z,19.65
2022-12-23T02:58:00.671Z,15.93
2022-12-23T03:00:27.689Z,13.38
2022-12-23T03:02:54.893Z,11.85
2022-12-23T03:05:34.565Z,12.38
2022-12-23T03:08:06.654Z,12.57
2022-12-23T03:11:10.536Z,14.05
2022-12-23T03:13:43.352Z,16.38
2022-12-23T03:16:28.733Z,12.98
2022-12-23T03:18:58.583Z,19.02
2022-12-23T03:21:48.010Z,16.85
2022-12-23T03:24:40.628Z,15.00
2022-12-23T03:27:14.838Z,13.68
2022-12-23T03:29:43.972Z,13.98
2022-12-23T03:32:14.484Z,13.65
2022-12-23T03:34:45.770Z,15.57
2022-12-23T03:37:15.826Z,15.98
2022-12-23T03:39:52.079Z,17.42
2022-12-23T03:42:29.319Z,13.35
2022-12-23T03:45:36.440Z,14.48
2022-12-23T03:47:59.148Z,15.07
2022-12-23T03:50:26.836Z,16.73
2022-12-23T03:53:02.503Z,15.27
2022-12-23T03:55:38.765Z,15.30
2022-12-23T03:58:46.983Z,17.75
2022-12-23T04:01:32.599Z,14.80
2022-12-23T04:04:11.646Z,13.90
2022-12-23T04:06:48.966Z,14.80
2022-12-23T04:09:21.846Z,15.02
2022-12-23T04:11:49.492Z,14.70
2022-12-23T04:14:20.187Z,16.20
2022-12-23T04:16:48.647Z,14.70
2022-12-23T04:19:15.566Z,15.52
2022-12-23T04:21:42.290Z,15.32
2022-12-23T04:24:09.149Z,13.60
2022-12-23T04:26:35.855Z,14.93
2022-12-23T04:29:02.619Z,17.90
2022-12-23T04:31:29.452Z,13.20
2022-12-23T04:33:56.601Z,16.20
2022-12-23T04:36:23.499Z,16.58
2022-12-23T04:38:50.196Z,15.48
2022-12-23T04:41:16.971Z,15.10
2022-12-23T04:43:47.772Z,15.52
2022-12-23T04:46:17.816Z,18.42
2022-12-23T04:48:44.609Z,18.35
2022-12-23T04:51:11.312Z,17.45
2022-12-23T04:53:38.255Z,17.15
2022-12-23T04:56:05.112Z,18.58
2022-12-23T04:58:31.885Z,21.13
2022-12-23T05:01:04.631Z,19.27
2022-12-23T05:03:31.599Z,21.77
2022-12-23T05:05:58.511Z,19.27
2022-12-23T05:08:25.589Z,21.17
2022-12-23T05:10:52.562Z,19.98
2022-12-23T05:13:19.288Z,20.27
2022-12-23T05:15:48.860Z,19.95
2022-12-23T05:18:16.040Z,19.90
2022-12-23T05:20:43.275Z,19.67
2022-12-23T05:23:10.066Z,18.90
2022-12-23T05:25:38.043Z,23.40
2022-12-23T05:28:06.109Z,18.95
2022-12-23T05:30:32.827Z,19.15
2022-12-23T05:32:59.757Z,20.20
2022-12-23T05:35:27.819Z,18.88
2022-12-23T05:37:54.659Z,18.25
2022-12-23T05:40:23.705Z,18.75
2022-12-23T05:42:55.891Z,19.70
2022-12-23T05:45:22.919Z,19.27
2022-12-23T05:47:49.641Z,17.40
2022-12-23T05:50:16.504Z,18.08
2022-12-23T05:52:43.183Z,18.50
2022-12-23T05:55:10.162Z,17.02
2022-12-23T05:57:36.886Z,18.00
2022-12-23T06:00:04.878Z,18.88
2022-12-23T06:02:31.788Z,17.65
2022-12-23T06:04:58.642Z,19.58
2022-12-23T06:07:25.357Z,19.80
2022-12-23T06:09:52.055Z,17.25
2022-12-23T06:12:18.803Z,20.52
2022-12-23T06:14:45.589Z,18.80
2022-12-23T06:17:12.340Z,19.42
2022-12-23T06:19:39.043Z,18.17
2022-12-23T06:22:05.734Z,20.55
2022-12-23T06:24:32.460Z,18.52
2022-12-23T06:26:59.231Z,20.95
2022-12-23T06:29:26.065Z,18.60
2022-12-23T06:31:52.863Z,20.42
2022-12-23T06:34:19.571Z,18.65
2022-12-23T06:36:46.287Z,20.42
2022-12-23T06:39:13.088Z,20.05
2022-12-23T06:41:39.880Z,16.60
2022-12-23T06:44:06.790Z,21.10
2022-12-23T06:46:33.593Z,24.45
2022-12-23T06:49:00.311Z,19.70
2022-12-23T06:51:27.111Z,19.95
2022-12-23T06:53:53.869Z,20.73
2022-12-23T06:56:20.711Z,20.67
2022-12-23T06:58:47.600Z,21.65
2022-12-23T07:01:14.445Z,18.38
2022-12-23T07:03:41.308Z,21.65
2022-12-23T07:06:08.255Z,21.38
2022-12-23T07:08:35.057Z,22.13
2022-12-23T07:11:05.846Z,21.10
2022-12-23T07:13:33.341Z,21.90
2022-12-23T07:16:05.653Z,21.77
2022-12-23T07:18:33.557Z,21.25
2022-12-23T07:21:01.975Z,21.60
2022-12-23T07:23:29.064Z,22.83
2022-12-23T07:25:55.874Z,21.42
2022-12-23T07:28:23.621Z,22.00
2022-12-23T07:30:50.401Z,22.67
2022-12-23T07:33:17.363Z,24.48
2022-12-23T07:35:44.080Z,21.63
2022-12-23T07:38:11.036Z,21.48
2022-12-23T07:40:37.717Z,23.25
2022-12-23T07:43:05.643Z,22.30
2022-12-23T07:45:32.407Z,22.05
2022-12-23T07:48:01.063Z,21.85
2022-12-23T07:50:27.922Z,21.95
2022-12-23T07:52:55.685Z,20.75
2022-12-23T07:55:22.791Z,20.38
2022-12-23T07:57:51.116Z,20.80
2022-12-23T08:00:18.604Z,23.02
2022-12-23T08:02:46.258Z,23.95
2022-12-23T08:05:13.672Z,21.27
2022-12-23T08:07:41.122Z,22.10
2022-12-23T08:10:08.638Z,21.30
2022-12-23T08:12:35.354Z,22.95
2022-12-23T08:15:02.091Z,23.25
2022-12-23T08:17:30.264Z,24.00
2022-12-23T08:19:57.397Z,24.90
2022-12-23T08:22:24.480Z,23.77
2022-12-23T08:24:52.586Z,26.23
2022-12-23T08:27:19.681Z,21.90
2022-12-23T08:29:46.493Z,22.83
2022-12-23T08:32:13.248Z,22.27
2022-12-23T08:34:40.047Z,21.52
2022-12-23T08:37:06.956Z,22.80
2022-12-23T08:39:33.754Z,19.50
2022-12-23T08:42:00.516Z,24.98
2022-12-23T08:44:27.983Z,22.08
2022-12-23T08:46:55.457Z,22.75
2022-12-23T08:49:22.797Z,29.48
2022-12-23T08:51:49.682Z,28.02
2022-12-23T08:54:17.491Z,31.50
2022-12-23T08:56:44.205Z,31.17
2022-12-23T08:59:19.001Z,23.30
2022-12-23T09:01:46.824Z,24.88
2022-12-23T09:04:13.737Z,23.48
2022-12-23T09:06:42.996Z,29.27
2022-12-23T09:09:11.867Z,26.63
2022-12-23T09:11:38.982Z,30.50
2022-12-23T09:14:07.229Z,34.92
2022-12-23T09:16:34.190Z,30.20
2022-12-23T09:19:01.120Z,28.15
2022-12-23T09:21:28.117Z,29.55
2022-12-23T09:23:54.855Z,26.23
2022-12-23T09:26:25.312Z,29.42
2022-12-23T09:28:52.902Z,29.70
2022-12-23T09:31:20.745Z,25.23
2022-12-23T09:33:49.147Z,29.27
2022-12-23T09:36:16.177Z,26.73
2022-12-23T09:38:43.099Z,25.20
2022-12-23T09:41:33.594Z,29.67
2022-12-23T09:46:51.628Z,19.48
2022-12-23T09:49:19.691Z,26.33
2022-12-23T09:51:48.827Z,25.52
2022-12-23T09:54:20.607Z,26.20
2022-12-23T09:57:11.623Z,41.15
2022-12-23T09:59:50.136Z,22.23
2022-12-23T10:02:44.936Z,21.15
2022-12-23T10:05:26.514Z,22.33
2022-12-23T10:07:58.929Z,22.13
2022-12-23T10:10:41.127Z,17.20
2022-12-23T10:13:34.909Z,22.42
2022-12-23T10:16:06.829Z,18.25
2022-12-23T10:18:55.630Z,23.27
2022-12-23T10:21:32.211Z,21.55
2022-12-23T10:24:06.464Z,24.30
2022-12-23T10:26:52.402Z,18.90
2022-12-23T10:29:22.272Z,19.80
2022-12-23T10:32:40.298Z,21.25
2022-12-23T10:35:20.087Z,22.10
2022-12-23T10:37:55.686Z,28.83
2022-12-23T10:40:34.992Z,22.48
2022-12-23T10:43:31.406Z,28.38
2022-12-23T10:46:21.752Z,30.35
2022-12-23T10:51:49.685Z,30.58
2022-12-23T10:54:34.985Z,26.80
2022-12-23T10:57:03.435Z,28.60
2022-12-23T10:59:33.344Z,28.65
2022-12-23T11:02:12.449Z,25.15
2022-12-23T11:04:44.854Z,28.27
2022-12-23T11:07:43.563Z,25.63
2022-12-23T11:10:13.133Z,30.00
2022-12-23T11:12:44.631Z,34.85
2022-12-23T11:15:30.598Z,31.90
2022-12-23T11:18:30.349Z,34.45
2022-12-23T11:21:05.575Z,41.05
2022-12-23T11:23:36.658Z,36.65
2022-12-23T11:26:09.761Z,41.53
2022-12-23T11:28:56.184Z,42.47
2022-12-23T11:31:35.382Z,44.08
2022-12-23T11:34:05.955Z,38.78
2022-12-23T11:36:34.203Z,38.90
2022-12-23T11:39:04.211Z,35.53
2022-12-23T11:41:38.997Z,44.08
2022-12-23T11:44:12.166Z,42.58
2022-12-23T11:46:38.971Z,41.50
2022-12-23T11:49:16.164Z,180.60
2022-12-23T11:51:45.134Z,40.58
2022-12-23T11:54:20.579Z,36.95
2022-12-23T11:56:52.479Z,40.03
2022-12-23T11:59:27.956Z,40.95
2022-12-23T12:01:58.085Z,44.60
2022-12-23T12:04:27.587Z,43.65
2022-12-23T12:06:56.803Z,41.70
2022-12-23T12:09:24.784Z,39.08
2022-12-23T12:12:19.268Z,39.10
2022-12-23T12:14:50.582Z,45.40
2022-12-23T12:17:46.695Z,38.00
2022-12-23T12:20:35.873Z,39.55
2022-12-23T12:23:18.613Z,37.10
2022-12-23T12:25:51.631Z,55.15
2022-12-23T12:28:36.943Z,60.20
2022-12-23T12:31:12.672Z,37.33
2022-12-23T12:34:09.196Z,34.88
2022-12-23T12:37:00.960Z,35.05
2022-12-23T12:39:53.137Z,35.97
2022-12-23T12:42:33.934Z,31.08
2022-12-23T12:45:22.686Z,35.03
2022-12-23T12:48:18.183Z,33.97
2022-12-23T12:51:01.238Z,31.08
2022-12-23T12:53:30.430Z,29.65
2022-12-23T12:56:05.214Z,26.92
2022-12-23T12:58:32.189Z,25.75
2022-12-23T13:01:17.215Z,24.50
2022-12-23T13:04:01.807Z,25.98
2022-12-23T13:07:06.927Z,26.23
2022-12-23T13:09:41.368Z,22.83
2022-12-23T13:12:22.686Z,23.45
2022-12-23T13:15:04.400Z,24.90
2022-12-23T13:17:41.651Z,21.45
2022-12-23T13:20:28.280Z,24.88
2022-12-23T13:23:20.835Z,21.73
2022-12-23T13:25:55.690Z,21.65
2022-12-23T13:28:44.725Z,24.05
2022-12-23T13:31:38.191Z,19.83
2022-12-23T13:34:43.957Z,20.05
2022-12-23T13:37:32.234Z,22.58
2022-12-23T13:40:28.010Z,20.20
2022-12-23T13:43:04.852Z,22.67
2022-12-23T13:45:38.607Z,20.13
2022-12-23T13:48:35.335Z,19.08
2022-12-23T13:51:13.209Z,17.58
2022-12-23T13:54:04.855Z,21.38
2022-12-23T13:56:43.947Z,19.25
2022-12-23T13:59:11.962Z,19.20
2022-12-23T14:01:41.679Z,19.83
2022-12-23T14:04:32.131Z,17.25
2022-12-23T14:09:35.475Z,15.02
2022-12-23T14:12:36.687Z,16.80
2022-12-23T14:15:40.365Z,18.70
2022-12-23T14:18:28.777Z,17.60
2022-12-23T14:21:23.213Z,14.73
2022-12-23T14:24:04.573Z,18.02
2022-12-23T14:26:56.377Z,17.42
2022-12-23T14:29:55.590Z,15.80
2022-12-23T14:32:34.303Z,15.93
2022-12-23T14:35:16.714Z,14.75
2022-12-23T14:38:04.406Z,16.48
2022-12-23T14:40:37.307Z,15.25
2022-12-23T14:43:22.269Z,17.80
2022-12-23T14:45:50.428Z,16.25
2022-12-23T14:48:35.784Z,17.48
2022-12-23T14:51:09.804Z,15.13
2022-12-23T14:53:52.352Z,16.00
2022-12-23T14:56:19.033Z,19.92
2022-12-23T14:58:45.691Z,16.35
2022-12-23T15:01:17.635Z,15.13
2022-12-23T15:03:59.087Z,15.25
2022-12-23T15:06:38.589Z,16.42
2022-12-23T15:09:07.512Z,16.05
2022-12-23T15:11:36.161Z,15.52
2022-12-23T15:14:08.440Z,15.98
2022-12-23T15:16:38.605Z,20.05
2022-12-23T15:19:26.500Z,14.70
2022-12-23T15:22:17.232Z,17.52
2022-12-23T15:24:47.760Z,15.90
2022-12-23T15:27:29.356Z,18.38
2022-12-23T15:29:57.502Z,16.40
2022-12-23T15:32:25.363Z,17.00
2022-12-23T15:34:59.944Z,15.07
2022-12-23T15:37:29.670Z,14.57
2022-12-23T15:40:06.158Z,17.67
2022-12-23T15:42:38.664Z,16.70
2022-12-23T15:45:33.240Z,18.67
2022-12-23T15:48:00.254Z,20.10
2022-12-23T15:50:28.386Z,19.02
2022-12-23T15:52:59.843Z,19.00
2022-12-23T15:55:31.974Z,18.70
2022-12-23T15:58:01.215Z,19.42
2022-12-23T16:00:49.777Z,21.40
2022-12-23T16:03:32.930Z,18.55
2022-12-23T16:06:14.713Z,37.55
2022-12-23T16:08:43.103Z,16.60
2022-12-23T16:11:16.779Z,17.20
2022-12-23T16:14:01.526Z,13.52
2022-12-23T16:16:37.512Z,11.40
2022-12-23T16:19:04.598Z,10.75
2022-12-23T16:21:36.622Z,13.15
2022-12-23T16:24:08.607Z,12.20
2022-12-23T16:26:45.028Z,14.80
2022-12-23T16:29:12.072Z,14.07
2022-12-23T16:31:42.890Z,18.95
2022-12-23T16:34:13.366Z,15.60
2022-12-23T16:36:40.153Z,16.48
2022-12-23T16:39:06.889Z,16.10
2022-12-23T16:41:34.213Z,15.38
2022-12-23T16:44:01.520Z,14.98
2022-12-23T16:46:32.056Z,17.15
2022-12-23T16:49:01.261Z,16.58
2022-12-23T16:51:30.432Z,21.25
2022-12-23T16:53:57.660Z,18.55
2022-12-23T16:56:28.366Z,16.88
2022-12-23T16:58:55.141Z,16.50
2022-12-23T17:01:28.102Z,17.33
2022-12-23T17:03:55.931Z,17.77
2022-12-23T17:06:23.688Z,19.38
2022-12-23T17:08:51.408Z,15.25
2022-12-23T17:11:28.461Z,13.70
2022-12-23T17:14:01.387Z,14.40
2022-12-23T17:16:31.073Z,15.52
2022-12-23T17:18:58.729Z,16.10
2022-12-23T17:21:39.599Z,14.75
2022-12-23T17:24:17.971Z,17.35
2022-12-23T17:26:44.701Z,16.90
2022-12-23T17:29:13.007Z,18.48
2022-12-23T17:31:40.753Z,17.38
2022-12-23T17:34:11.854Z,19.63
2022-12-23T17:36:41.033Z,17.75
2022-12-23T17:39:11.258Z,19.27
2022-12-23T17:41:39.585Z,24.98
2022-12-23T17:44:06.917Z,24.40
2022-12-23T17:46:34.077Z,23.73
2022-12-23T17:49:00.813Z,22.73
2022-12-23T17:51:27.684Z,25.85
2022-12-23T17:53:57.984Z,24.25
2022-12-23T17:56:28.158Z,24.55
2022-12-23T17:58:54.899Z,27.35
2022-12-23T18:01:27.458Z,26.10
2022-12-23T18:03:55.295Z,33.30
2022-12-23T18:06:24.276Z,29.70
2022-12-23T18:08:51.306Z,39.15
2022-12-23T18:11:22.797Z,42.30
2022-12-23T18:13:51.607Z,39.38
2022-12-23T18:16:18.444Z,39.83
2022-12-23T18:18:46.810Z,37.60
2022-12-23T18:21:22.539Z,34.67
2022-12-23T18:23:49.751Z,45.92
2022-12-23T18:26:16.715Z,45.17
2022-12-23T18:28:44.275Z,46.38
2022-12-23T18:31:20.091Z,48.53
2022-12-23T18:33:47.607Z,41.33
2022-12-23T18:36:22.526Z,44.22
2022-12-23T18:38:49.535Z,48.03
2022-12-23T18:41:16.249Z,57.92
2022-12-23T18:43:43.006Z,45.38
2022-12-23T18:46:09.745Z,39.33
2022-12-23T18:48:36.514Z,43.35
2022-12-23T18:51:03.312Z,45.67
2022-12-23T18:53:30.015Z,45.85
2022-12-23T18:55:56.913Z,40.28
2022-12-23T18:58:24.517Z,40.58
2022-12-23T19:00:53.089Z,37.50
2022-12-23T19:03:24.794Z,40.75
2022-12-23T19:05:53.158Z,43.85
2022-12-23T19:08:26.284Z,41.88
2022-12-23T19:10:54.337Z,50.05
2022-12-23T19:13:21.129Z,34.03
2022-12-23T19:15:47.922Z,52.25
2022-12-23T19:18:17.341Z,37.67
2022-12-23T19:20:45.385Z,40.05
2022-12-23T19:23:12.751Z,43.17
2022-12-23T19:25:52.472Z,39.70
2022-12-23T19:28:21.699Z,38.53
2022-12-23T19:30:48.748Z,44.65
2022-12-23T19:33:15.959Z,47.53
2022-12-23T19:35:43.377Z,49.83
2022-12-23T19:38:10.517Z,38.33
2022-12-23T19:40:37.242Z,45.40
2022-12-23T19:43:04.204Z,42.58
2022-12-23T19:45:30.898Z,33.47
2022-12-23T19:47:57.631Z,43.80
2022-12-23T19:50:24.388Z,31.48
2022-12-23T19:52:51.616Z,47.38
2022-12-23T19:55:18.394Z,44.00
2022-12-23T19:57:45.215Z,43.17
2022-12-23T20:00:12.656Z,38.08
2022-12-23T20:02:39.413Z,40.17
2022-12-23T20:05:06.460Z,43.40
2022-12-23T20:07:35.889Z,43.42
2022-12-23T20:10:03.380Z,33.38
2022-12-23T20:12:30.178Z,38.80
2022-12-23T20:14:56.977Z,35.13
2022-12-23T20:17:23.775Z,37.72
2022-12-23T20:19:50.496Z,34.17
2022-12-23T20:22:17.161Z,29.73
2022-12-23T20:24:43.946Z,27.10
2022-12-23T20:27:12.545Z,21.83
2022-12-23T20:29:40.732Z,19.60
2022-12-23T20:32:07.418Z,20.30
2022-12-23T20:34:39.254Z,19.23
2022-12-23T20:37:07.392Z,24.55
2022-12-23T20:39:34.970Z,25.23
2022-12-23T20:42:01.727Z,22.58
2022-12-23T20:44:37.243Z,21.95
2022-12-23T20:47:06.156Z,20.08
2022-12-23T20:49:33.237Z,30.40
2022-12-23T20:52:00.091Z,20.52
2022-12-23T20:54:32.533Z,31.15
2022-12-23T20:57:03.940Z,29.33
2022-12-23T20:59:30.758Z,29.02
2022-12-23T21:01:59.202Z,29.55
2022-12-23T21:04:26.406Z,27.13
2022-12-23T21:06:53.123Z,26.85
2022-12-23T21:09:20.132Z,28.08
2022-12-23T21:11:47.629Z,26.83
2022-12-23T21:14:15.629Z,33.33
2022-12-23T21:16:43.028Z,26.20
2022-12-23T21:19:17.996Z,26.05
2022-12-23T21:21:45.437Z,32.70
2022-12-23T21:24:12.224Z,21.92
2022-12-23T21:26:39.321Z,33.05
2022-12-23T21:29:07.757Z,23.80
2022-12-23T21:31:37.575Z,23.08
2022-12-23T21:34:05.162Z,21.02
2022-12-23T21:36:35.014Z,21.65
2022-12-23T21:39:02.127Z,21.27
2022-12-23T21:41:31.195Z,19.33
2022-12-23T21:43:59.579Z,17.05
2022-12-23T21:46:27.859Z,28.52
2022-12-23T21:48:56.716Z,31.52
2022-12-23T21:51:26.625Z,23.27
2022-12-23T21:53:54.907Z,29.65
2022-12-23T21:56:28.213Z,25.50
2022-12-23T21:59:03.106Z,29.58
2022-12-23T22:01:30.972Z,27.60
2022-12-23T22:03:58.242Z,24.70
2022-12-23T22:06:33.614Z,19.98
2022-12-23T22:09:00.334Z,20.42
2022-12-23T22:11:33.111Z,30.88
2022-12-23T22:14:01.557Z,26.30
2022-12-23T22:16:30.056Z,31.10
2022-12-23T22:18:58.508Z,20.15
2022-12-23T22:21:27.196Z,25.98
2022-12-23T22:23:54.735Z,23.30
2022-12-23T22:26:26.058Z,27.20
2022-12-23T22:28:57.796Z,26.83
2022-12-23T22:31:48.855Z,21.42
2022-12-23T22:34:19.267Z,26.70
2022-12-23T22:36:46.797Z,32.67
2022-12-23T22:39:19.984Z,26.30
2022-12-23T22:41:47.717Z,23.63
2022-12-23T22:44:15.091Z,28.63
2022-12-23T22:46:42.094Z,35.13
2022-12-23T22:49:12.943Z,22.05
2022-12-23T22:51:41.330Z,21.48
2022-12-23T22:54:09.022Z,29.85
2022-12-23T22:56:35.787Z,24.20
2022-12-23T22:59:02.604Z,23.60
2022-12-23T23:01:31.638Z,24.73
2022-12-23T23:04:00.601Z,22.98
2022-12-23T23:06:33.068Z,29.10
2022-12-23T23:09:00.758Z,27.38
2022-12-23T23:11:28.239Z,31.83
2022-12-23T23:13:55.960Z,22.58
2022-12-23T23:16:23.943Z,27.58
2022-12-23T23:18:51.174Z,25.92
2022-12-23T23:21:18.492Z,29.45
2022-12-23T23:23:45.568Z,25.15
2022-12-23T23:26:12.564Z,27.98
2022-12-23T23:28:40.151Z,26.27
2022-12-23T23:33:54.829Z,29.35
2022-12-23T23:36:21.619Z,30.15
2022-12-23T23:38:48.382Z,26.60
2022-12-23T23:41:22.239Z,36.22
2022-12-23T23:43:50.200Z,21.88
2022-12-23T23:46:17.000Z,32.38
2022-12-23T23:48:43.843Z,27.08
2022-12-23T23:51:10.634Z,36.03
2022-12-23T23:53:38.223Z,34.38
2022-12-23T23:56:07.197Z,28.80
2022-12-23T23:58:35.014Z,32.88
